Time;durP1;ratioP1;P1;durP2;ratioP2;P2;SDS_P1;SDS_P2;PMS_P1;PMS_P2;Temp;Humidity;BMP_temperature;BMP_pressure;BME280_temperature;BME280_humidity;BME280_pressure;Samples;Min_cycle;Max_cycle;Signal;HPM_P1;HPM_P2
2021/07/29 00:01:18;;;;;;;17.15;7.03;;;;;;;;;;6303216;22;20071;-51
2021/07/29 00:03:44;;;;;;;11.45;6.68;;;;;;;;;;6303359;22;19995;-50
2021/07/29 00:06:13;;;;;;;10.90;8.05;;;;;;;;;;6303427;22;19999;-52
2021/07/29 00:08:39;;;;;;;11.45;7.70;;;;;;;;;;6303042;22;19999;-52
2021/07/29 00:11:04;;;;;;;8.75;6.38;;;;;;;;;;6303309;22;19999;-53
2021/07/29 00:13:29;;;;;;;8.32;6.53;;;;;;;;;;6303088;22;20620;-52
2021/07/29 00:15:55;;;;;;;14.15;5.95;;;;;;;;;;6302885;22;20049;-54
2021/07/29 00:21:04;;;;;;;7.55;5.95;;;;;;;;;;6302855;22;20053;-55
2021/07/29 00:23:29;;;;;;;8.55;7.75;;;;;;;;;;6303205;22;19999;-52
2021/07/29 00:25:54;;;;;;;8.50;6.97;;;;;;;;;;6302631;22;20417;-52
2021/07/29 00:28:20;;;;;;;16.75;6.90;;;;;;;;;;6302718;22;20001;-54
2021/07/29 00:30:45;;;;;;;9.02;7.18;;;;;;;;;;6302888;22;19995;-51
2021/07/29 00:33:10;;;;;;;9.90;8.07;;;;;;;;;;6303272;22;20003;-53
2021/07/29 00:35:36;;;;;;;10.38;7.75;;;;;;;;;;6303182;22;19995;-50
2021/07/29 00:38:02;;;;;;;16.95;7.20;;;;;;;;;;6303372;22;20026;-50
2021/07/29 00:40:28;;;;;;;9.82;7.85;;;;;;;;;;6302644;22;20022;-51
2021/07/29 00:42:54;;;;;;;13.25;7.15;;;;;;;;;;6302574;22;20381;-50
2021/07/29 00:45:19;;;;;;;18.48;8.85;;;;;;;;;;6303177;22;20068;-51
2021/07/29 00:47:45;;;;;;;13.70;7.70;;;;;;;;;;6303144;22;20082;-54
2021/07/29 00:50:11;;;;;;;17.23;7.88;;;;;;;;;;6302906;22;20026;-53
2021/07/29 00:52:38;;;;;;;15.95;8.27;;;;;;;;;;6302825;22;19999;-51
2021/07/29 00:55:03;;;;;;;15.57;8.40;;;;;;;;;;6302281;22;19999;-53
2021/07/29 00:57:29;;;;;;;9.90;7.35;;;;;;;;;;6302713;22;20010;-53
2021/07/29 00:59:54;;;;;;;7.97;7.13;;;;;;;;;;6302837;22;20003;-52
2021/07/29 01:02:19;;;;;;;7.25;6.53;;;;;;;;;;6302465;22;20421;-48
2021/07/29 01:04:45;;;;;;;7.55;5.75;;;;;;;;;;6302874;22;19999;-46
2021/07/29 01:07:11;;;;;;;10.10;6.72;;;;;;;;;;6302602;22;19999;-49
2021/07/29 01:09:36;;;;;;;9.93;6.45;;;;;;;;;;6303068;22;19991;-50
2021/07/29 01:12:01;;;;;;;8.95;5.80;;;;;;;;;;6302346;22;20436;-48
2021/07/29 01:14:27;;;;;;;11.57;6.22;;;;;;;;;;6302811;22;20075;-50
2021/07/29 01:16:52;;;;;;;6.40;5.63;;;;;;;;;;6302731;22;20029;-52
2021/07/29 01:19:20;;;;;;;13.27;7.40;;;;;;;;;;6302479;22;20023;-51
2021/07/29 01:21:45;;;;;;;8.43;7.15;;;;;;;;;;6302329;22;20003;-51
2021/07/29 01:24:10;;;;;;;9.60;7.57;;;;;;;;;;6302795;22;20087;-49
2021/07/29 01:26:35;;;;;;;20.13;8.52;;;;;;;;;;6302798;22;20312;-51
2021/07/29 01:29:01;;;;;;;12.77;7.10;;;;;;;;;;6302397;22;20574;-52
2021/07/29 01:31:27;;;;;;;6.00;5.40;;;;;;;;;;6302572;22;20036;-53
2021/07/29 01:33:52;;;;;;;8.50;7.68;;;;;;;;;;6302100;22;20417;-51
2021/07/29 01:36:18;;;;;;;9.30;7.45;;;;;;;;;;6302581;22;20022;-47
2021/07/29 01:38:43;;;;;;;11.20;8.10;;;;;;;;;;6302512;22;20403;-48
2021/07/29 01:41:08;;;;;;;11.63;9.27;;;;;;;;;;6302184;22;19999;-46
2021/07/29 01:43:34;;;;;;;11.18;9.07;;;;;;;;;;6302645;22;20004;-47
2021/07/29 01:46:00;;;;;;;7.53;6.82;;;;;;;;;;6302389;22;20444;-48
2021/07/29 01:48:25;;;;;;;15.35;7.60;;;;;;;;;;6302645;22;20403;-47
2021/07/29 01:50:51;;;;;;;7.25;6.47;;;;;;;;;;6302477;22;20078;-46
2021/07/29 01:53:16;;;;;;;9.63;8.48;;;;;;;;;;6302673;22;20007;-47
2021/07/29 01:55:45;;;;;;;8.57;6.15;;;;;;;;;;6301642;22;19995;-46
2021/07/29 01:58:10;;;;;;;10.70;5.15;;;;;;;;;;6301851;22;20507;-51
2021/07/29 02:00:36;;;;;;;10.68;6.60;;;;;;;;;;6302188;22;20010;-49
2021/07/29 02:03:03;;;;;;;18.90;8.55;;;;;;;;;;6301814;22;20227;-50
2021/07/29 02:05:29;;;;;;;9.10;6.93;;;;;;;;;;6302639;22;19995;-47
2021/07/29 02:07:54;;;;;;;11.68;6.78;;;;;;;;;;6301866;22;20463;-50
2021/07/29 02:10:19;;;;;;;13.30;6.13;;;;;;;;;;6301488;22;20037;-52
2021/07/29 02:12:45;;;;;;;13.30;6.15;;;;;;;;;;6301734;22;20010;-52
2021/07/29 02:15:10;;;;;;;6.80;5.65;;;;;;;;;;6302082;22;20011;-52
2021/07/29 02:17:35;;;;;;;7.30;6.30;;;;;;;;;;6301846;22;20007;-49
2021/07/29 02:20:01;;;;;;;8.55;7.30;;;;;;;;;;6302021;22;20021;-53
2021/07/29 02:22:26;;;;;;;10.27;6.97;;;;;;;;;;6302017;22;19999;-50
2021/07/29 02:24:51;;;;;;;5.25;4.75;;;;;;;;;;6302245;22;20066;-52
2021/07/29 02:27:18;;;;;;;15.10;7.03;;;;;;;;;;6302220;22;20468;-52
2021/07/29 02:29:44;;;;;;;9.85;7.90;;;;;;;;;;6302379;22;19998;-50
2021/07/29 02:32:09;;;;;;;7.18;6.47;;;;;;;;;;6301753;22;20429;-49
2021/07/29 02:34:34;;;;;;;9.82;7.40;;;;;;;;;;6302081;22;19991;-45
2021/07/29 02:36:59;;;;;;;10.65;6.10;;;;;;;;;;6301649;22;19999;-48
2021/07/29 02:39:25;;;;;;;11.25;8.18;;;;;;;;;;6302157;22;20075;-49
2021/07/29 02:41:50;;;;;;;19.98;8.27;;;;;;;;;;6301536;22;20007;-47
2021/07/29 02:44:16;;;;;;;9.18;6.43;;;;;;;;;;6301893;22;20010;-52
2021/07/29 02:46:41;;;;;;;7.35;6.15;;;;;;;;;;6301514;22;19998;-52
2021/07/29 02:49:06;;;;;;;8.88;6.72;;;;;;;;;;6301539;22;19995;-52
2021/07/29 02:51:32;;;;;;;15.57;8.10;;;;;;;;;;6301704;22;20038;-49
2021/07/29 02:53:57;;;;;;;8.93;5.63;;;;;;;;;;6301776;22;20039;-49
2021/07/29 02:56:22;;;;;;;15.15;8.23;;;;;;;;;;6301864;22;20007;-48
2021/07/29 02:58:47;;;;;;;12.02;7.28;;;;;;;;;;6301713;22;20328;-49
2021/07/29 03:01:14;;;;;;;14.48;7.32;;;;;;;;;;6302017;22;20057;-52
2021/07/29 03:03:39;;;;;;;7.03;5.90;;;;;;;;;;6301544;22;20447;-47
2021/07/29 03:06:05;;;;;;;8.73;6.65;;;;;;;;;;6301644;22;19991;-49
2021/07/29 03:08:30;;;;;;;14.25;7.93;;;;;;;;;;6303007;22;20074;-50
2021/07/29 03:10:58;;;;;;;10.60;6.65;;;;;;;;;;6303978;22;20372;-49
2021/07/29 03:13:23;;;;;;;9.15;7.03;;;;;;;;;;6303947;22;20004;-54
2021/07/29 03:15:49;;;;;;;12.60;8.35;;;;;;;;;;6303923;22;20008;-53
2021/07/29 03:18:14;;;;;;;13.23;7.45;;;;;;;;;;6303962;22;20053;-54
2021/07/29 03:20:40;;;;;;;9.50;7.70;;;;;;;;;;6303721;22;20003;-51
2021/07/29 03:23:05;;;;;;;9.93;7.95;;;;;;;;;;6303150;22;19999;-54
2021/07/29 03:25:31;;;;;;;9.38;7.53;;;;;;;;;;6303739;22;19995;-52
2021/07/29 03:27:56;;;;;;;8.95;7.55;;;;;;;;;;6303451;22;20002;-52
2021/07/29 03:30:22;;;;;;;9.68;8.77;;;;;;;;;;6303673;22;19995;-52
2021/07/29 03:32:47;;;;;;;8.82;7.53;;;;;;;;;;6303475;22;20031;-53
2021/07/29 03:35:12;;;;;;;11.85;7.80;;;;;;;;;;6303506;22;19999;-54
2021/07/29 03:37:37;;;;;;;7.05;6.30;;;;;;;;;;6303542;22;20003;-53
2021/07/29 03:40:06;;;;;;;8.75;7.80;;;;;;;;;;6303683;22;19995;-50
2021/07/29 03:42:31;;;;;;;10.57;7.97;;;;;;;;;;6303106;22;20004;-50
2021/07/29 03:44:57;;;;;;;16.13;8.98;;;;;;;;;;6303259;22;19995;-48
2021/07/29 03:47:22;;;;;;;20.45;8.43;;;;;;;;;;6303801;22;19999;-56
2021/07/29 03:49:48;;;;;;;14.13;8.07;;;;;;;;;;6303382;22;20417;-52
2021/07/29 03:52:13;;;;;;;9.30;5.97;;;;;;;;;;6304061;22;20025;-55
2021/07/29 03:54:38;;;;;;;11.30;7.03;;;;;;;;;;6303577;22;20452;-54
2021/07/29 03:57:04;;;;;;;9.65;7.88;;;;;;;;;;6303359;22;19995;-53
2021/07/29 03:59:29;;;;;;;8.63;7.60;;;;;;;;;;6303172;22;20459;-52
2021/07/29 04:01:54;;;;;;;14.95;9.18;;;;;;;;;;6303755;22;19999;-50
2021/07/29 04:04:20;;;;;;;7.90;7.00;;;;;;;;;;6303092;22;20030;-53
2021/07/29 04:06:45;;;;;;;11.27;8.27;;;;;;;;;;6303260;22;19991;-48
2021/07/29 04:09:10;;;;;;;9.15;7.80;;;;;;;;;;6303309;22;20006;-48
2021/07/29 04:11:35;;;;;;;8.70;7.60;;;;;;;;;;6303292;22;20049;-52
2021/07/29 04:14:01;;;;;;;11.32;8.63;;;;;;;;;;6303136;22;20010;-52
2021/07/29 04:16:26;;;;;;;9.77;7.93;;;;;;;;;;6303148;22;20003;-52
2021/07/29 04:18:51;;;;;;;8.63;7.38;;;;;;;;;;6303015;22;20030;-49
2021/07/29 04:21:17;;;;;;;8.38;6.82;;;;;;;;;;6302859;22;20383;-53
2021/07/29 04:23:42;;;;;;;17.63;8.07;;;;;;;;;;6302855;22;20003;-49
2021/07/29 04:26:08;;;;;;;8.32;6.63;;;;;;;;;;6302898;22;19999;-49
2021/07/29 04:28:33;;;;;;;9.32;7.10;;;;;;;;;;6302772;22;19999;-49
2021/07/29 04:30:58;;;;;;;8.73;6.47;;;;;;;;;;6302770;22;19995;-52
2021/07/29 04:33:23;;;;;;;9.23;5.72;;;;;;;;;;6302994;22;20057;-49
2021/07/29 04:35:49;;;;;;;11.20;6.90;;;;;;;;;;6302703;22;19999;-48
2021/07/29 04:38:14;;;;;;;10.05;7.20;;;;;;;;;;6303325;22;20003;-50
2021/07/29 04:40:39;;;;;;;11.13;9.18;;;;;;;;;;6302767;22;20437;-52
2021/07/29 04:43:05;;;;;;;7.90;6.15;;;;;;;;;;6302598;22;20088;-46
2021/07/29 04:45:30;;;;;;;18.17;7.28;;;;;;;;;;6303060;22;20003;-45
2021/07/29 04:47:55;;;;;;;7.30;6.60;;;;;;;;;;6303042;22;20053;-47
2021/07/29 04:50:21;;;;;;;11.05;7.25;;;;;;;;;;6302732;22;19999;-51
2021/07/29 04:52:50;;;;;;;12.10;6.78;;;;;;;;;;6303283;22;20018;-52
2021/07/29 04:55:15;;;;;;;7.18;6.35;;;;;;;;;;6302651;22;20024;-58
2021/07/29 04:57:40;;;;;;;10.43;7.28;;;;;;;;;;6302206;22;20090;-48
2021/07/29 05:00:06;;;;;;;10.85;6.65;;;;;;;;;;6302998;22;20102;-54
2021/07/29 05:02:31;;;;;;;10.57;7.72;;;;;;;;;;6302437;22;20635;-47
2021/07/29 05:04:56;;;;;;;11.68;8.23;;;;;;;;;;6302801;22;20003;-48
2021/07/29 05:07:22;;;;;;;14.95;9.43;;;;;;;;;;6302540;22;20500;-45
2021/07/29 05:09:47;;;;;;;15.70;7.80;;;;;;;;;;6303088;22;19995;-48
2021/07/29 05:12:12;;;;;;;16.88;6.88;;;;;;;;;;6302827;22;20003;-45
2021/07/29 05:14:37;;;;;;;13.18;6.97;;;;;;;;;;6302729;22;20007;-47
2021/07/29 05:17:04;;;;;;;6.20;5.70;;;;;;;;;;6302869;22;19999;-51
2021/07/29 05:19:30;;;;;;;17.23;7.43;;;;;;;;;;6302527;22;20353;-52
2021/07/29 05:21:55;;;;;;;12.48;7.35;;;;;;;;;;6302679;22;20522;-52
2021/07/29 05:24:20;;;;;;;11.40;8.15;;;;;;;;;;6302397;22;20007;-53
2021/07/29 05:26:45;;;;;;;13.63;7.03;;;;;;;;;;6302135;22;19999;-56
2021/07/29 05:29:11;;;;;;;9.32;7.40;;;;;;;;;;6300590;22;20025;-54
2021/07/29 05:31:40;;;;;;;10.93;7.95;;;;;;;;;;6302048;22;19999;-52
2021/07/29 05:34:06;;;;;;;15.10;8.57;;;;;;;;;;6302314;22;20030;-51
2021/07/29 05:36:31;;;;;;;14.68;9.20;;;;;;;;;;6302337;22;20683;-52
2021/07/29 05:38:56;;;;;;;11.80;8.45;;;;;;;;;;6302643;22;20060;-53
2021/07/29 05:41:21;;;;;;;11.68;10.52;;;;;;;;;;6301967;22;20003;-57
2021/07/29 05:43:47;;;;;;;16.73;10.35;;;;;;;;;;6302768;22;20006;-55
2021/07/29 05:46:13;;;;;;;14.38;9.60;;;;;;;;;;6302299;22;19996;-55
2021/07/29 05:48:38;;;;;;;10.43;9.32;;;;;;;;;;6302594;22;19995;-50
2021/07/29 05:51:04;;;;;;;13.48;9.77;;;;;;;;;;6302065;22;20427;-47
2021/07/29 05:53:29;;;;;;;13.60;9.98;;;;;;;;;;6302084;22;20078;-45
2021/07/29 05:55:55;;;;;;;10.57;9.65;;;;;;;;;;6302322;22;19995;-52
2021/07/29 05:58:20;;;;;;;14.55;10.02;;;;;;;;;;6302052;22;20003;-52
2021/07/29 06:00:46;;;;;;;11.07;8.50;;;;;;;;;;6301942;22;20022;-48
2021/07/29 06:03:11;;;;;;;14.82;11.48;;;;;;;;;;6302221;22;20029;-48
2021/07/29 06:05:36;;;;;;;18.73;9.68;;;;;;;;;;6302301;22;20433;-53
2021/07/29 06:08:02;;;;;;;19.88;9.93;;;;;;;;;;6302424;22;19991;-51
2021/07/29 06:10:27;;;;;;;9.48;8.57;;;;;;;;;;6302136;22;20239;-51
2021/07/29 06:12:52;;;;;;;11.57;10.52;;;;;;;;;;6302125;22;20365;-52
2021/07/29 06:15:17;;;;;;;10.88;7.82;;;;;;;;;;6302074;22;20007;-48
2021/07/29 06:17:47;;;;;;;12.27;10.38;;;;;;;;;;6302441;22;19999;-50
2021/07/29 06:20:12;;;;;;;14.73;8.45;;;;;;;;;;6301704;22;20700;-51
2021/07/29 06:22:38;;;;;;;16.55;10.65;;;;;;;;;;6301705;22;20006;-49
2021/07/29 06:25:07;;;;;;;13.95;10.55;;;;;;;;;;6302071;22;19994;-51
2021/07/29 06:27:33;;;;;;;13.68;9.63;;;;;;;;;;6301803;22;20068;-48
2021/07/29 06:29:59;;;;;;;18.77;9.77;;;;;;;;;;6301908;22;19999;-49
2021/07/29 06:32:24;;;;;;;14.65;7.93;;;;;;;;;;6302063;22;20079;-50
2021/07/29 06:34:49;;;;;;;19.48;9.75;;;;;;;;;;6301677;22;20021;-50
2021/07/29 06:37:15;;;;;;;16.38;7.95;;;;;;;;;;6301769;22;20002;-51
2021/07/29 06:39:40;;;;;;;10.48;8.70;;;;;;;;;;6301958;22;20003;-50
2021/07/29 06:42:06;;;;;;;8.80;7.97;;;;;;;;;;6301533;22;19999;-49
2021/07/29 06:44:31;;;;;;;18.35;14.38;;;;;;;;;;6301677;22;20324;-45
2021/07/29 06:46:56;;;;;;;24.77;16.42;;;;;;;;;;6302055;22;20022;-48
2021/07/29 06:49:27;;;;;;;26.58;14.38;;;;;;;;;;6301653;22;20340;-49
2021/07/29 06:51:52;;;;;;;23.80;16.38;;;;;;;;;;6300719;22;20583;-45
2021/07/29 06:54:17;;;;;;;14.13;12.52;;;;;;;;;;6300755;22;20031;-51
2021/07/29 06:56:43;;;;;;;9.82;8.32;;;;;;;;;;6300298;22;20022;-47
2021/07/29 06:59:08;;;;;;;12.30;8.30;;;;;;;;;;6299520;22;20452;-45
2021/07/29 07:01:34;;;;;;;14.05;8.68;;;;;;;;;;6298746;22;19999;-46
2021/07/29 07:03:59;;;;;;;7.72;5.50;;;;;;;;;;6299491;22;20007;-45
2021/07/29 07:06:25;;;;;;;16.33;9.40;;;;;;;;;;6299866;22;20014;-46
2021/07/29 07:08:50;;;;;;;14.30;9.45;;;;;;;;;;6300949;22;20011;-47
2021/07/29 07:11:16;;;;;;;32.78;10.40;;;;;;;;;;6301917;22;20023;-46
2021/07/29 07:13:43;;;;;;;12.52;11.30;;;;;;;;;;6302119;22;20026;-45
2021/07/29 07:16:12;;;;;;;14.70;12.02;;;;;;;;;;6301221;22;19995;-49
2021/07/29 07:18:38;;;;;;;12.98;11.77;;;;;;;;;;6301208;22;20019;-47
2021/07/29 07:21:04;;;;;;;14.55;13.20;;;;;;;;;;6301670;22;19999;-46
2021/07/29 07:23:29;;;;;;;11.68;9.20;;;;;;;;;;6300623;22;20078;-46
2021/07/29 07:25:55;;;;;;;12.45;10.70;;;;;;;;;;6301338;22;20026;-49
2021/07/29 07:28:20;;;;;;;9.27;8.43;;;;;;;;;;6301366;22;20007;-46
2021/07/29 07:30:45;;;;;;;11.55;7.88;;;;;;;;;;6301707;22;20054;-46
2021/07/29 07:33:10;;;;;;;13.75;8.88;;;;;;;;;;6301147;22;20060;-46
2021/07/29 07:35:36;;;;;;;11.73;7.90;;;;;;;;;;6301245;22;20086;-48
2021/07/29 07:38:01;;;;;;;12.00;8.55;;;;;;;;;;6301697;22;19995;-47
2021/07/29 07:40:26;;;;;;;15.18;7.78;;;;;;;;;;6301920;22;20313;-44
2021/07/29 07:42:52;;;;;;;10.05;6.53;;;;;;;;;;6301401;22;20378;-51
2021/07/29 07:45:17;;;;;;;13.30;7.60;;;;;;;;;;6301419;22;20530;-49
2021/07/29 07:47:42;;;;;;;17.25;11.35;;;;;;;;;;6301484;22;19995;-53
2021/07/29 07:50:08;;;;;;;11.00;5.28;;;;;;;;;;6301600;22;19995;-48
2021/07/29 07:52:33;;;;;;;13.55;6.75;;;;;;;;;;6300985;22;19991;-47
2021/07/29 07:54:58;;;;;;;10.05;7.15;;;;;;;;;;6302450;22;20045;-54
2021/07/29 07:57:24;;;;;;;6.05;5.43;;;;;;;;;;6303227;22;20504;-61
2021/07/29 07:59:50;;;;;;;7.85;6.13;;;;;;;;;;6303413;22;20025;-66
2021/07/29 08:02:16;;;;;;;5.55;5.05;;;;;;;;;;6303382;22;20045;-67
2021/07/29 08:04:41;;;;;;;5.82;4.97;;;;;;;;;;6303113;22;20003;-70
2021/07/29 08:07:06;;;;;;;6.60;4.22;;;;;;;;;;6303021;22;20418;-68
2021/07/29 08:09:32;;;;;;;10.75;6.00;;;;;;;;;;6303415;22;20002;-68
2021/07/29 08:11:57;;;;;;;8.93;6.97;;;;;;;;;;6303431;22;20011;-68
2021/07/29 08:14:22;;;;;;;6.70;5.45;;;;;;;;;;6302427;22;20003;-67
2021/07/29 08:16:48;;;;;;;13.52;8.15;;;;;;;;;;6302374;22;20010;-66
2021/07/29 08:19:13;;;;;;;7.00;5.70;;;;;;;;;;6302919;22;20015;-65
2021/07/29 08:21:39;;;;;;;7.95;6.40;;;;;;;;;;6303145;22;20030;-63
2021/07/29 08:24:04;;;;;;;6.32;5.72;;;;;;;;;;6302995;22;20003;-48
2021/07/29 08:26:29;;;;;;;8.20;5.13;;;;;;;;;;6302190;22;20019;-48
2021/07/29 08:28:55;;;;;;;9.93;6.40;;;;;;;;;;6301446;22;20003;-51
2021/07/29 08:31:20;;;;;;;10.52;6.38;;;;;;;;;;6302328;22;20023;-47
2021/07/29 08:33:46;;;;;;;6.38;5.82;;;;;;;;;;6302238;22;20429;-48
2021/07/29 08:36:15;;;;;;;7.40;6.53;;;;;;;;;;6302788;22;20102;-49
2021/07/29 08:38:41;;;;;;;12.88;4.70;;;;;;;;;;6302754;22;20007;-51
2021/07/29 08:41:07;;;;;;;6.50;5.60;;;;;;;;;;6302788;22;20010;-51
2021/07/29 08:43:33;;;;;;;7.03;5.72;;;;;;;;;;6303047;22;20049;-50
2021/07/29 08:45:58;;;;;;;7.93;7.13;;;;;;;;;;6303227;22;20002;-46
2021/07/29 08:48:27;;;;;;;14.77;6.88;;;;;;;;;;6302727;22;20011;-49
2021/07/29 08:50:55;;;;;;;6.80;5.43;;;;;;;;;;6303170;22;19999;-54
2021/07/29 08:53:21;;;;;;;9.23;6.10;;;;;;;;;;6303370;22;20067;-51
2021/07/29 08:55:50;;;;;;;5.53;4.47;;;;;;;;;;6302868;22;20374;-50
2021/07/29 08:58:17;;;;;;;15.10;7.30;;;;;;;;;;6302864;22;19995;-50
2021/07/29 09:00:57;;;;;;;19.88;7.88;;;;;;;;;;6302792;22;20004;-45
2021/07/29 09:03:26;;;;;;;18.10;7.10;;;;;;;;;;6302707;22;19995;-51
2021/07/29 09:06:02;;;;;;;6.70;4.63;;;;;;;;;;6302581;22;20064;-48
2021/07/29 09:08:28;;;;;;;16.60;5.32;;;;;;;;;;6302553;22;19992;-48
2021/07/29 09:10:53;;;;;;;8.38;6.03;;;;;;;;;;6302104;22;19999;-48
2021/07/29 09:13:19;;;;;;;9.45;5.78;;;;;;;;;;6302764;22;20066;-49
2021/07/29 09:15:45;;;;;;;18.67;6.97;;;;;;;;;;6302737;22;20025;-50
2021/07/29 09:18:14;;;;;;;9.45;6.03;;;;;;;;;;6302726;22;20074;-52
2021/07/29 09:20:39;;;;;;;5.10;4.43;;;;;;;;;;6302372;22;20019;-50
2021/07/29 09:23:11;;;;;;;8.80;5.22;;;;;;;;;;6302802;22;20496;-49
2021/07/29 09:25:37;;;;;;;6.43;4.68;;;;;;;;;;6302300;22;20052;-47
2021/07/29 09:28:04;;;;;;;5.78;4.90;;;;;;;;;;6302299;22;19996;-51
2021/07/29 09:30:33;;;;;;;5.80;5.25;;;;;;;;;;6302354;22;20417;-49
2021/07/29 09:33:02;;;;;;;12.90;6.68;;;;;;;;;;6302301;22;20007;-49
2021/07/29 09:35:32;;;;;;;24.00;6.60;;;;;;;;;;6301929;22;20100;-49
2021/07/29 09:38:01;;;;;;;19.30;7.30;;;;;;;;;;6302165;22;19995;-44
2021/07/29 09:40:26;;;;;;;15.63;5.47;;;;;;;;;;6302521;22;20080;-47
2021/07/29 09:43:11;;;;;;;5.10;4.60;;;;;;;;;;6302057;22;20282;-44
2021/07/29 09:45:37;;;;;;;6.95;6.15;;;;;;;;;;6301993;22;20034;-57
2021/07/29 09:48:06;;;;;;;9.70;5.93;;;;;;;;;;6302056;22;19992;-47
2021/07/29 09:50:32;;;;;;;14.60;6.90;;;;;;;;;;6301803;22;20006;-45
2021/07/29 09:52:58;;;;;;;16.42;6.25;;;;;;;;;;6301940;22;20070;-50
2021/07/29 09:55:25;;;;;;;12.23;5.65;;;;;;;;;;6301857;22;20038;-47
2021/07/29 09:57:50;;;;;;;19.90;6.55;;;;;;;;;;6302354;22;20029;-48
2021/07/29 10:00:15;;;;;;;9.55;5.43;;;;;;;;;;6302468;22;19995;-49
2021/07/29 10:02:41;;;;;;;9.57;6.82;;;;;;;;;;6302166;22;20070;-50
2021/07/29 10:05:07;;;;;;;8.13;6.13;;;;;;;;;;6301429;22;20064;-49
2021/07/29 10:07:35;;;;;;;6.50;5.90;;;;;;;;;;6301759;22;20091;-45
2021/07/29 10:10:03;;;;;;;7.53;5.78;;;;;;;;;;6301506;22;19995;-45
2021/07/29 10:12:30;;;;;;;7.65;5.55;;;;;;;;;;6301340;22;20003;-47
2021/07/29 10:14:56;;;;;;;10.95;6.78;;;;;;;;;;6300743;22;20068;-46
2021/07/29 10:17:34;;;;;;;26.33;6.90;;;;;;;;;;6301335;22;20003;-49
2021/07/29 10:20:26;;;;;;;6.18;4.88;;;;;;;;;;6300708;22;20015;-50
2021/07/29 10:23:10;;;;;;;9.63;6.50;;;;;;;;;;6295553;22;20014;-47
2021/07/29 10:25:54;;;;;;;9.07;5.50;;;;;;;;;;6300681;22;19991;-46
2021/07/29 10:28:19;;;;;;;6.75;6.10;;;;;;;;;;6301143;22;20002;-48
2021/07/29 10:30:51;;;;;;;6.67;4.93;;;;;;;;;;6301394;22;20003;-49
2021/07/29 10:33:17;;;;;;;6.95;5.75;;;;;;;;;;6301430;22;20244;-45
2021/07/29 10:35:42;;;;;;;6.95;5.05;;;;;;;;;;6301163;22;20034;-45
2021/07/29 10:38:08;;;;;;;8.38;4.55;;;;;;;;;;6301452;22;20003;-47
2021/07/29 10:40:37;;;;;;;11.52;5.15;;;;;;;;;;6300693;22;20447;-47
2021/07/29 10:43:21;;;;;;;11.43;4.90;;;;;;;;;;6300581;22;20424;-49
2021/07/29 10:45:48;;;;;;;7.13;5.13;;;;;;;;;;6300777;22;20029;-45
2021/07/29 10:48:50;;;;;;;10.18;6.10;;;;;;;;;;6300535;22;19996;-47
2021/07/29 10:51:21;;;;;;;9.18;4.60;;;;;;;;;;6285081;22;20336;-52
2021/07/29 10:53:47;;;;;;;5.97;5.10;;;;;;;;;;6300928;22;20444;-51
2021/07/29 10:56:16;;;;;;;12.50;6.15;;;;;;;;;;6300817;22;19999;-53
2021/07/29 10:58:43;;;;;;;7.28;6.30;;;;;;;;;;6301582;22;20007;-51
2021/07/29 11:01:12;;;;;;;14.98;6.00;;;;;;;;;;6301246;22;20107;-50
2021/07/29 11:03:45;;;;;;;3.72;3.35;;;;;;;;;;6300944;22;20310;-50
2021/07/29 11:06:13;;;;;;;9.52;4.50;;;;;;;;;;6300956;22;19995;-50
2021/07/29 11:08:40;;;;;;;6.55;4.65;;;;;;;;;;6301051;22;20027;-50
2021/07/29 11:11:05;;;;;;;5.28;3.78;;;;;;;;;;6301217;22;20077;-47
2021/07/29 11:13:31;;;;;;;8.20;5.22;;;;;;;;;;6301493;22;20092;-50
2021/07/29 11:15:58;;;;;;;5.38;4.88;;;;;;;;;;6301127;22;20007;-51
2021/07/29 11:18:23;;;;;;;10.43;8.27;;;;;;;;;;6301010;22;20133;-51
2021/07/29 11:20:49;;;;;;;8.35;5.22;;;;;;;;;;6300973;22;20385;-49
2021/07/29 11:23:31;;;;;;;6.78;5.15;;;;;;;;;;6300705;22;20007;-51
2021/07/29 11:25:58;;;;;;;18.23;6.63;;;;;;;;;;6300066;22;19995;-47
2021/07/29 11:28:23;;;;;;;7.50;5.30;;;;;;;;;;6300139;22;20019;-51
2021/07/29 11:30:48;;;;;;;16.02;6.35;;;;;;;;;;6302001;22;19995;-49
2021/07/29 11:33:23;;;;;;;6.82;6.13;;;;;;;;;;6301909;22;20010;-50
2021/07/29 11:35:49;;;;;;;10.80;8.18;;;;;;;;;;6301923;22;20003;-52
2021/07/29 11:38:18;;;;;;;8.02;5.93;;;;;;;;;;6301924;22;20062;-50
2021/07/29 11:40:44;;;;;;;4.55;4.07;;;;;;;;;;6301973;22;19999;-47
2021/07/29 11:43:26;;;;;;;10.57;6.10;;;;;;;;;;6302627;22;20010;-51
2021/07/29 11:45:52;;;;;;;7.05;4.75;;;;;;;;;;6302204;22;20003;-44
2021/07/29 11:48:20;;;;;;;8.75;5.72;;;;;;;;;;6302768;22;19999;-46
2021/07/29 11:50:46;;;;;;;7.43;5.15;;;;;;;;;;6302622;22;20003;-46
2021/07/29 11:53:11;;;;;;;6.07;3.83;;;;;;;;;;6302480;22;20003;-45
2021/07/29 11:55:37;;;;;;;6.43;5.03;;;;;;;;;;6302301;22;20075;-58
2021/07/29 11:58:06;;;;;;;5.07;4.00;;;;;;;;;;6301976;22;20026;-58
2021/07/29 12:00:32;;;;;;;7.35;4.60;;;;;;;;;;6303176;22;20011;-57
2021/07/29 12:02:57;;;;;;;6.45;5.00;;;;;;;;;;6302228;22;20344;-59
2021/07/29 12:05:26;;;;;;;4.70;4.10;;;;;;;;;;6302196;22;20605;-57
2021/07/29 12:07:54;;;;;;;14.18;4.78;;;;;;;;;;6301295;22;20019;-57
2021/07/29 12:10:21;;;;;;;6.07;5.47;;;;;;;;;;6300843;22;20490;-50
2021/07/29 12:12:47;;;;;;;7.03;4.38;;;;;;;;;;6302278;22;20017;-45
2021/07/29 12:15:15;;;;;;;6.35;5.47;;;;;;;;;;6302648;22;20070;-48
2021/07/29 12:17:40;;;;;;;8.18;6.07;;;;;;;;;;6303003;22;20183;-47
2021/07/29 12:20:06;;;;;;;11.20;5.20;;;;;;;;;;6302343;22;20452;-47
2021/07/29 12:22:34;;;;;;;7.85;4.70;;;;;;;;;;6302634;22;20026;-46
2021/07/29 12:25:01;;;;;;;6.18;4.97;;;;;;;;;;6302573;22;19999;-47
2021/07/29 12:27:40;;;;;;;6.35;4.15;;;;;;;;;;6302645;22;20022;-45
2021/07/29 12:30:06;;;;;;;9.20;4.90;;;;;;;;;;6302627;22;20002;-46
2021/07/29 12:32:31;;;;;;;8.50;4.88;;;;;;;;;;6302454;22;20396;-48
2021/07/29 12:34:57;;;;;;;18.23;5.60;;;;;;;;;;6301963;22;20416;-47
2021/07/29 12:37:35;;;;;;;8.63;4.78;;;;;;;;;;6302085;22;20066;-47
2021/07/29 12:40:01;;;;;;;6.25;4.30;;;;;;;;;;6302114;22;20010;-47
2021/07/29 12:42:27;;;;;;;6.32;4.03;;;;;;;;;;6302171;22;20031;-46
2021/07/29 12:44:59;;;;;;;9.68;5.63;;;;;;;;;;6301543;22;20006;-48
2021/07/29 12:47:25;;;;;;;6.78;4.95;;;;;;;;;;6302313;22;20019;-46
2021/07/29 12:49:50;;;;;;;6.90;3.55;;;;;;;;;;6301922;22;20052;-48
2021/07/29 12:52:19;;;;;;;6.63;3.95;;;;;;;;;;6302062;22;19995;-47
2021/07/29 12:55:07;;;;;;;4.82;4.38;;;;;;;;;;6301922;22;19995;-49
2021/07/29 12:57:47;;;;;;;5.15;3.95;;;;;;;;;;6302227;22;20232;-47
2021/07/29 13:00:16;;;;;;;7.95;5.28;;;;;;;;;;6301698;22;20425;-46
2021/07/29 13:02:41;;;;;;;5.90;4.47;;;;;;;;;;6302121;22;20141;-43
2021/07/29 13:05:07;;;;;;;8.63;6.18;;;;;;;;;;6301938;22;20023;-46
2021/07/29 13:07:32;;;;;;;9.23;4.65;;;;;;;;;;6302073;22;20002;-46
2021/07/29 13:09:57;;;;;;;5.00;4.03;;;;;;;;;;6301967;22;20003;-49
2021/07/29 13:12:23;;;;;;;4.63;3.50;;;;;;;;;;6301827;22;20060;-47
2021/07/29 13:14:48;;;;;;;5.85;4.75;;;;;;;;;;6301763;22;20003;-46
2021/07/29 13:17:13;;;;;;;5.85;3.47;;;;;;;;;;6301726;22;20023;-47
2021/07/29 13:19:38;;;;;;;6.40;4.10;;;;;;;;;;6301961;22;20014;-45
2021/07/29 13:22:04;;;;;;;5.55;4.35;;;;;;;;;;6301728;22;20007;-47
2021/07/29 13:24:29;;;;;;;5.88;5.00;;;;;;;;;;6302032;22;20003;-46
2021/07/29 13:26:54;;;;;;;5.25;3.88;;;;;;;;;;6301600;22;20518;-47
2021/07/29 13:29:20;;;;;;;8.05;4.10;;;;;;;;;;6301606;22;20693;-46
2021/07/29 13:31:45;;;;;;;4.65;4.25;;;;;;;;;;6302253;22;19995;-47
2021/07/29 13:34:10;;;;;;;4.82;3.15;;;;;;;;;;6301774;22;20006;-47
2021/07/29 13:36:36;;;;;;;3.95;3.50;;;;;;;;;;6302071;22;19999;-49
2021/07/29 13:39:01;;;;;;;8.52;4.57;;;;;;;;;;6301354;22;20424;-47
2021/07/29 13:41:26;;;;;;;6.43;4.65;;;;;;;;;;6301542;22;20087;-46
2021/07/29 13:43:52;;;;;;;4.18;3.78;;;;;;;;;;6301363;22;20065;-45
2021/07/29 13:46:17;;;;;;;3.78;3.20;;;;;;;;;;6301593;22;20026;-47
2021/07/29 13:48:45;;;;;;;7.07;4.55;;;;;;;;;;6301374;22;20061;-48
2021/07/29 13:51:10;;;;;;;4.68;3.95;;;;;;;;;;6301625;22;20003;-46
2021/07/29 13:53:35;;;;;;;6.28;4.15;;;;;;;;;;6325560;22;20352;-46
2021/07/29 13:56:01;;;;;;;8.25;4.25;;;;;;;;;;6301303;22;20172;-46
2021/07/29 13:58:26;;;;;;;4.90;3.47;;;;;;;;;;6301603;22;20003;-48
2021/07/29 14:00:51;;;;;;;6.78;4.18;;;;;;;;;;6301174;22;20314;-52
2021/07/29 14:03:17;;;;;;;7.90;5.10;;;;;;;;;;6301039;22;20124;-45
2021/07/29 14:05:43;;;;;;;3.75;3.10;;;;;;;;;;6302008;22;20017;-46
2021/07/29 14:08:09;;;;;;;6.75;4.20;;;;;;;;;;6301308;22;20064;-47
2021/07/29 14:10:35;;;;;;;4.00;3.22;;;;;;;;;;6301480;22;19999;-48
2021/07/29 14:13:00;;;;;;;5.25;4.28;;;;;;;;;;6301283;22;20029;-44
2021/07/29 14:15:25;;;;;;;7.63;4.03;;;;;;;;;;6302071;22;19995;-50
2021/07/29 14:20:28;;;;;;;5.32;4.22;;;;;;;;;;6301103;22;20341;-50
2021/07/29 14:23:05;;;;;;;5.93;3.50;;;;;;;;;;6301172;22;20003;-50
2021/07/29 14:25:31;;;;;;;5.18;3.28;;;;;;;;;;6301434;22;20074;-52
2021/07/29 14:27:58;;;;;;;4.38;3.55;;;;;;;;;;6301345;22;20112;-47
2021/07/29 14:30:24;;;;;;;9.20;3.78;;;;;;;;;;6301361;22;19991;-52
2021/07/29 14:32:49;;;;;;;3.45;3.15;;;;;;;;;;6300911;22;20002;-47
2021/07/29 14:35:15;;;;;;;7.10;4.22;;;;;;;;;;6301196;22;20054;-47
2021/07/29 14:37:40;;;;;;;10.90;5.80;;;;;;;;;;6301100;22;20336;-51